createdAt,value
2023-01-19T00:03:28.652Z,34.05
2023-01-19T00:08:31.224Z,28.05
2023-01-19T00:13:33.858Z,28.33
2023-01-19T00:18:36.402Z,26.75
2023-01-19T00:23:39.171Z,22.63
2023-01-19T00:28:42.438Z,26.48
2023-01-19T00:33:48.900Z,25.00
2023-01-19T00:38:51.532Z,25.77
2023-01-19T00:43:54.135Z,22.63
2023-01-19T00:48:56.681Z,22.80
2023-01-19T00:54:05.072Z,22.98
2023-01-19T00:59:07.737Z,24.10
2023-01-19T01:04:12.274Z,24.90
2023-01-19T01:09:14.848Z,22.35
2023-01-19T01:14:17.717Z,25.05
2023-01-19T01:19:21.488Z,21.67
2023-01-19T01:24:24.198Z,24.92
2023-01-19T01:29:26.828Z,25.52
2023-01-19T01:34:29.403Z,27.55
2023-01-19T01:39:31.953Z,24.80
2023-01-19T01:44:51.725Z,26.67
2023-01-19T01:50:00.725Z,28.30
2023-01-19T01:55:07.239Z,26.30
2023-01-19T02:00:11.341Z,22.58
2023-01-19T02:05:19.247Z,24.90
2023-01-19T02:10:40.266Z,29.00
2023-01-19T02:15:42.818Z,22.83
2023-01-19T02:21:07.652Z,21.50
2023-01-19T02:26:14.312Z,24.83
2023-01-19T02:31:17.805Z,25.02
2023-01-19T02:36:26.017Z,20.70
2023-01-19T02:41:34.649Z,21.27
2023-01-19T02:46:38.451Z,25.95
2023-01-19T02:51:44.216Z,25.77
2023-01-19T02:56:53.246Z,24.77
2023-01-19T03:02:23.367Z,24.50
2023-01-19T03:07:47.096Z,22.35
2023-01-19T03:13:22.705Z,23.55
2023-01-19T03:18:29.809Z,25.67
2023-01-19T03:23:34.806Z,22.65
2023-01-19T03:28:40.280Z,24.23
2023-01-19T03:33:49.522Z,23.88
2023-01-19T03:38:53.535Z,24.13
2023-01-19T03:43:57.859Z,23.42
2023-01-19T03:49:00.784Z,23.73
2023-01-19T03:54:05.679Z,24.55
2023-01-19T03:59:08.251Z,19.65
2023-01-19T04:04:10.805Z,22.75
2023-01-19T04:09:13.626Z,20.55
2023-01-19T04:14:16.211Z,23.67
2023-01-19T04:19:18.865Z,22.65
2023-01-19T04:24:22.113Z,22.15
2023-01-19T04:29:25.316Z,21.00
2023-01-19T04:34:27.941Z,23.77
2023-01-19T04:39:31.110Z,24.60
2023-01-19T04:44:33.819Z,21.80
2023-01-19T04:49:39.367Z,22.40
2023-01-19T04:54:41.924Z,24.55
2023-01-19T04:59:44.620Z,25.85
2023-01-19T05:04:47.150Z,23.85
2023-01-19T05:09:49.816Z,24.33
2023-01-19T05:14:52.384Z,23.92
2023-01-19T05:19:54.985Z,23.63
2023-01-19T05:24:58.113Z,21.05
2023-01-19T05:30:05.046Z,24.27
2023-01-19T05:35:08.248Z,23.60
2023-01-19T05:40:11.715Z,24.80
2023-01-19T05:45:15.553Z,31.23
2023-01-19T05:50:18.160Z,33.78
2023-01-19T05:55:21.198Z,39.95
2023-01-19T06:00:24.680Z,43.85
2023-01-19T06:05:27.520Z,38.05
2023-01-19T06:10:30.108Z,31.60
2023-01-19T06:15:32.672Z,44.20
2023-01-19T06:20:36.444Z,37.53
2023-01-19T06:25:39.257Z,32.63
2023-01-19T06:30:41.895Z,28.08
2023-01-19T06:35:48.882Z,27.08
2023-01-19T06:41:02.838Z,25.58
2023-01-19T06:46:06.158Z,25.63
2023-01-19T06:51:08.689Z,28.70
2023-01-19T06:56:11.374Z,28.73
2023-01-19T07:01:14.498Z,28.20
2023-01-19T07:06:17.081Z,28.45
2023-01-19T07:11:24.773Z,29.65
2023-01-19T07:16:32.707Z,26.63
2023-01-19T07:21:35.326Z,27.70
2023-01-19T07:26:37.954Z,29.85
2023-01-19T07:31:40.544Z,27.17
2023-01-19T07:36:44.173Z,33.00
2023-01-19T07:41:48.815Z,26.88
2023-01-19T07:46:51.439Z,28.10
2023-01-19T07:51:56.380Z,30.23
2023-01-19T07:57:00.702Z,29.35
2023-01-19T08:02:03.488Z,27.00
2023-01-19T08:07:07.743Z,31.65
2023-01-19T08:12:10.290Z,31.48
2023-01-19T08:17:14.108Z,31.17
2023-01-19T08:22:16.769Z,27.17
2023-01-19T08:27:19.281Z,29.63
2023-01-19T08:32:21.886Z,31.20
2023-01-19T08:37:24.906Z,33.28
2023-01-19T08:42:28.193Z,35.40
2023-01-19T08:47:30.831Z,29.23
2023-01-19T08:52:33.467Z,26.27
2023-01-19T08:57:36.183Z,31.08
2023-01-19T09:02:38.768Z,32.00
2023-01-19T09:07:41.860Z,29.65
2023-01-19T09:12:45.144Z,31.75
2023-01-19T09:17:47.742Z,28.50
2023-01-19T09:22:50.401Z,30.60
2023-01-19T09:27:53.211Z,29.13
2023-01-19T09:32:55.771Z,27.40
2023-01-19T09:37:59.204Z,31.35
2023-01-19T09:43:22.801Z,34.67
2023-01-19T09:48:57.904Z,31.85
2023-01-19T09:54:06.570Z,32.33
2023-01-19T09:59:30.392Z,36.90
2023-01-19T10:04:54.641Z,32.97
2023-01-19T10:10:03.226Z,37.63
2023-01-19T10:15:37.744Z,35.05
2023-01-19T10:21:11.973Z,37.70
2023-01-19T10:26:23.503Z,33.20
2023-01-19T10:31:26.219Z,32.38
2023-01-19T10:36:39.966Z,32.80
2023-01-19T10:41:53.739Z,38.92
2023-01-19T10:46:58.834Z,37.78
2023-01-19T10:52:02.563Z,33.63
2023-01-19T10:57:09.280Z,39.55
2023-01-19T11:02:31.674Z,39.78
2023-01-19T11:07:35.142Z,42.63
2023-01-19T11:12:45.987Z,40.28
2023-01-19T11:17:50.433Z,41.53
2023-01-19T11:23:05.704Z,38.70
2023-01-19T11:28:20.843Z,44.88
2023-01-19T11:33:50.576Z,38.47
2023-01-19T11:38:56.137Z,37.92
2023-01-19T11:44:12.115Z,47.47
2023-01-19T11:49:27.539Z,45.17
2023-01-19T11:54:36.137Z,47.70
2023-01-19T11:59:38.701Z,47.78
2023-01-19T12:04:44.586Z,45.45
2023-01-19T12:09:53.178Z,45.55
2023-01-19T12:15:08.786Z,43.40
2023-01-19T12:20:35.599Z,41.90
2023-01-19T12:25:53.952Z,44.55
2023-01-19T12:30:59.748Z,49.25
2023-01-19T12:36:17.395Z,44.72
2023-01-19T12:41:19.864Z,40.42
2023-01-19T12:46:30.299Z,45.63
2023-01-19T12:51:33.409Z,45.03
2023-01-19T12:56:38.676Z,44.17
2023-01-19T13:01:41.315Z,43.85
2023-01-19T13:06:49.897Z,42.90
2023-01-19T13:12:21.397Z,45.22
2023-01-19T13:17:28.556Z,40.75
2023-01-19T13:22:51.378Z,43.65
2023-01-19T13:27:57.088Z,43.25
2023-01-19T13:33:19.770Z,47.78
2023-01-19T13:38:24.333Z,46.80
2023-01-19T13:43:36.662Z,46.22
2023-01-19T13:48:39.746Z,42.58
2023-01-19T13:53:53.973Z,48.08
2023-01-19T13:59:12.733Z,48.35
2023-01-19T14:04:32.676Z,52.47
2023-01-19T14:09:35.908Z,44.75
2023-01-19T14:14:38.875Z,49.63
2023-01-19T14:19:51.910Z,45.83
2023-01-19T14:24:54.605Z,51.42
2023-01-19T14:30:21.494Z,53.70
2023-01-19T14:35:25.850Z,56.55
2023-01-19T14:40:29.768Z,55.90
2023-01-19T14:45:43.291Z,54.78
2023-01-19T14:51:02.038Z,51.90
2023-01-19T14:56:06.908Z,42.70
2023-01-19T15:01:09.604Z,46.30
2023-01-19T15:06:15.659Z,43.58
2023-01-19T15:11:22.277Z,42.78
2023-01-19T15:16:27.490Z,44.25
2023-01-19T15:21:30.209Z,51.47
2023-01-19T15:26:33.061Z,36.60
2023-01-19T15:31:36.154Z,38.35
2023-01-19T15:36:38.913Z,37.38
2023-01-19T15:41:41.576Z,36.03
2023-01-19T15:46:44.328Z,32.65
2023-01-19T15:51:46.885Z,31.25
2023-01-19T15:56:49.540Z,32.05
2023-01-19T16:01:52.588Z,32.70
2023-01-19T16:06:55.232Z,36.80
2023-01-19T16:11:57.838Z,36.35
2023-01-19T16:17:01.833Z,29.38
2023-01-19T16:22:05.690Z,31.70
2023-01-19T16:27:08.995Z,31.23
2023-01-19T16:32:11.600Z,22.73
2023-01-19T16:37:14.326Z,27.17
2023-01-19T16:42:17.065Z,26.58
2023-01-19T16:47:19.626Z,24.38
2023-01-19T16:52:24.872Z,27.92
2023-01-19T16:57:27.398Z,24.30
2023-01-19T17:02:30.096Z,30.42
2023-01-19T17:07:32.740Z,31.08
2023-01-19T17:12:35.324Z,28.85
2023-01-19T17:17:38.142Z,24.30
2023-01-19T17:22:40.860Z,27.27
2023-01-19T17:27:43.390Z,25.15
2023-01-19T17:32:46.063Z,26.35
2023-01-19T17:37:48.743Z,27.30
2023-01-19T17:42:51.506Z,43.40
2023-01-19T17:47:54.044Z,36.80
2023-01-19T17:52:56.701Z,41.38
2023-01-19T17:58:00.425Z,35.17
2023-01-19T18:03:04.167Z,39.33
2023-01-19T18:08:06.850Z,36.50
2023-01-19T18:13:09.364Z,39.75
2023-01-19T18:18:11.973Z,57.55
2023-01-19T18:23:14.630Z,41.83
2023-01-19T18:28:17.259Z,42.28
2023-01-19T18:33:20.218Z,46.55
2023-01-19T18:38:22.821Z,46.35
2023-01-19T18:43:25.502Z,55.53
2023-01-19T18:48:28.061Z,55.05
2023-01-19T18:53:31.626Z,48.67
2023-01-19T18:58:37.139Z,55.53
2023-01-19T19:03:39.766Z,58.90
2023-01-19T19:08:44.228Z,60.78
2023-01-19T19:13:50.942Z,53.05
2023-01-19T19:18:53.666Z,59.97
2023-01-19T19:23:58.622Z,58.67
2023-01-19T19:29:01.784Z,62.05
2023-01-19T19:34:04.531Z,61.22
2023-01-19T19:39:07.094Z,69.93
2023-01-19T19:44:15.558Z,66.78
2023-01-19T19:49:21.470Z,61.60
2023-01-19T19:54:24.095Z,58.30
2023-01-19T19:59:26.613Z,57.33
2023-01-19T20:04:29.273Z,57.97
2023-01-19T20:09:32.879Z,53.78
2023-01-19T20:14:35.429Z,57.75
2023-01-19T20:19:38.112Z,56.10
2023-01-19T20:24:40.792Z,47.45
2023-01-19T20:29:43.481Z,50.88
2023-01-19T20:34:46.098Z,62.45
2023-01-19T20:39:48.941Z,52.95
2023-01-19T20:44:51.976Z,47.20
2023-01-19T20:49:54.618Z,49.85
2023-01-19T20:54:57.232Z,57.65
2023-01-19T20:59:59.839Z,53.40
2023-01-19T21:05:02.533Z,61.00
2023-01-19T21:10:05.899Z,66.85
2023-01-19T21:15:09.253Z,60.70
2023-01-19T21:20:12.220Z,63.85
2023-01-19T21:25:15.064Z,64.80
2023-01-19T21:30:18.916Z,67.47
2023-01-19T21:35:21.741Z,73.05
2023-01-19T21:40:24.271Z,74.43
2023-01-19T21:45:26.845Z,65.35
2023-01-19T21:50:29.439Z,71.38
2023-01-19T21:55:32.526Z,70.57
2023-01-19T22:00:35.134Z,67.63
2023-01-19T22:05:37.891Z,62.78
2023-01-19T22:10:40.413Z,68.50
2023-01-19T22:15:42.946Z,68.70
2023-01-19T22:20:45.477Z,68.78
2023-01-19T22:25:47.985Z,66.13
2023-01-19T22:30:50.724Z,63.60
2023-01-19T22:35:53.359Z,66.70
2023-01-19T22:40:56.157Z,64.85
2023-01-19T22:45:59.164Z,64.30
2023-01-19T22:51:01.804Z,65.20
2023-01-19T22:56:18.446Z,68.32
2023-01-19T23:01:29.173Z,64.05
2023-01-19T23:06:34.722Z,62.80
2023-01-19T23:11:40.430Z,59.28
2023-01-19T23:16:43.068Z,58.40
2023-01-19T23:21:45.886Z,60.78
2023-01-19T23:26:51.285Z,69.25
2023-01-19T23:31:56.044Z,63.95
2023-01-19T23:36:58.572Z,58.10
2023-01-19T23:42:01.171Z,62.70
2023-01-19T23:47:03.682Z,62.63
2023-01-19T23:52:06.218Z,61.80
2023-01-19T23:57:08.738Z,64.35
